Terminal Aerodrome Forecast
Issued by NWS Mobile, AL

Current Version | Previous Version | Text Only | Print | Product List | Glossary On
Versions: 1 2 3 4 5 6 7 8 9 10 11 12 13 14 15 16 17 18 19 20 21 22 23 24 25 26
000
FTUS44 KMOB 232322
TAFPNS
TAF
KPNS 232322Z 2400/2424 15012KT P6SM SCT050
     FM240300 11006KT P6SM FEW060 BKN250
     FM241200 10010KT P6SM BKN050
     FM241800 14015KT P6SM VCTS BKN020CB=

USA.gov is the U.S. government's official web portal to all federal, state and local government web resources and services.